sensor_id;sensor_type;location;lat;lon;timestamp;P1;durP1;ratioP1;P2;durP2;ratioP2
43628;SDS011;56545;48.224;11.678;2023-06-26T00:01:50;10.00;;;6.80;;
43628;SDS011;56545;48.224;11.678;2023-06-26T00:04:16;9.35;;;7.00;;
43628;SDS011;56545;48.224;11.678;2023-06-26T00:06:42;11.07;;;6.78;;
43628;SDS011;56545;48.224;11.678;2023-06-26T00:09:08;9.70;;;7.35;;
43628;SDS011;56545;48.224;11.678;2023-06-26T00:11:34;10.75;;;7.00;;
43628;SDS011;56545;48.224;11.678;2023-06-26T00:14:00;9.13;;;6.85;;
43628;SDS011;56545;48.224;11.678;2023-06-26T00:16:27;10.70;;;7.10;;
43628;SDS011;56545;48.224;11.678;2023-06-26T00:18:53;11.40;;;7.55;;
43628;SDS011;56545;48.224;11.678;2023-06-26T00:21:19;10.10;;;6.95;;
43628;SDS011;56545;48.224;11.678;2023-06-26T00:23:45;12.02;;;7.43;;
43628;SDS011;56545;48.224;11.678;2023-06-26T00:26:11;11.60;;;7.70;;
43628;SDS011;56545;48.224;11.678;2023-06-26T00:28:37;10.43;;;7.38;;
43628;SDS011;56545;48.224;11.678;2023-06-26T00:31:03;10.77;;;7.22;;
43628;SDS011;56545;48.224;11.678;2023-06-26T00:33:29;11.15;;;7.40;;
43628;SDS011;56545;48.224;11.678;2023-06-26T00:35:55;10.38;;;7.40;;
43628;SDS011;56545;48.224;11.678;2023-06-26T00:38:21;9.63;;;7.15;;
43628;SDS011;56545;48.224;11.678;2023-06-26T00:40:47;10.63;;;7.50;;
43628;SDS011;56545;48.224;11.678;2023-06-26T00:43:13;12.00;;;7.47;;
43628;SDS011;56545;48.224;11.678;2023-06-26T00:45:39;9.60;;;7.60;;
43628;SDS011;56545;48.224;11.678;2023-06-26T00:48:05;9.98;;;7.10;;
43628;SDS011;56545;48.224;11.678;2023-06-26T00:50:31;9.45;;;7.30;;
43628;SDS011;56545;48.224;11.678;2023-06-26T00:52:57;9.93;;;7.10;;
43628;SDS011;56545;48.224;11.678;2023-06-26T00:55:25;11.13;;;7.63;;
43628;SDS011;56545;48.224;11.678;2023-06-26T00:57:52;10.45;;;7.53;;
43628;SDS011;56545;48.224;11.678;2023-06-26T01:00:19;9.80;;;7.50;;
43628;SDS011;56545;48.224;11.678;2023-06-26T01:02:45;11.57;;;7.45;;
43628;SDS011;56545;48.224;11.678;2023-06-26T01:05:11;11.75;;;7.75;;
43628;SDS011;56545;48.224;11.678;2023-06-26T01:07:46;11.32;;;7.97;;
43628;SDS011;56545;48.224;11.678;2023-06-26T01:10:13;10.73;;;7.38;;
43628;SDS011;56545;48.224;11.678;2023-06-26T01:12:39;10.30;;;7.50;;
43628;SDS011;56545;48.224;11.678;2023-06-26T01:15:05;10.48;;;7.85;;
43628;SDS011;56545;48.224;11.678;2023-06-26T01:17:32;9.82;;;7.65;;
43628;SDS011;56545;48.224;11.678;2023-06-26T01:19:58;11.02;;;8.07;;
43628;SDS011;56545;48.224;11.678;2023-06-26T01:25:12;10.85;;;8.10;;
43628;SDS011;56545;48.224;11.678;2023-06-26T01:27:47;12.40;;;7.97;;
43628;SDS011;56545;48.224;11.678;2023-06-26T01:30:15;10.37;;;7.87;;
43628;SDS011;56545;48.224;11.678;2023-06-26T01:32:42;10.50;;;7.90;;
43628;SDS011;56545;48.224;11.678;2023-06-26T01:35:09;10.48;;;7.97;;
43628;SDS011;56545;48.224;11.678;2023-06-26T01:37:37;11.18;;;8.02;;
43628;SDS011;56545;48.224;11.678;2023-06-26T01:40:03;10.82;;;8.18;;
43628;SDS011;56545;48.224;11.678;2023-06-26T01:42:35;10.27;;;7.93;;
43628;SDS011;56545;48.224;11.678;2023-06-26T01:45:07;10.88;;;8.10;;
43628;SDS011;56545;48.224;11.678;2023-06-26T01:47:40;11.93;;;8.25;;
43628;SDS011;56545;48.224;11.678;2023-06-26T01:50:13;11.02;;;8.20;;
43628;SDS011;56545;48.224;11.678;2023-06-26T01:52:52;11.52;;;8.52;;
43628;SDS011;56545;48.224;11.678;2023-06-26T01:55:46;12.27;;;8.93;;
43628;SDS011;56545;48.224;11.678;2023-06-26T01:58:20;11.15;;;7.82;;
43628;SDS011;56545;48.224;11.678;2023-06-26T02:00:49;11.35;;;8.35;;
43628;SDS011;56545;48.224;11.678;2023-06-26T02:03:15;12.00;;;8.60;;
43628;SDS011;56545;48.224;11.678;2023-06-26T02:05:41;10.82;;;8.38;;
43628;SDS011;56545;48.224;11.678;2023-06-26T02:08:08;10.93;;;8.55;;
43628;SDS011;56545;48.224;11.678;2023-06-26T02:10:34;10.80;;;8.15;;
43628;SDS011;56545;48.224;11.678;2023-06-26T02:13:00;11.30;;;8.30;;
43628;SDS011;56545;48.224;11.678;2023-06-26T02:15:26;10.50;;;7.88;;
43628;SDS011;56545;48.224;11.678;2023-06-26T02:17:52;11.73;;;8.05;;
43628;SDS011;56545;48.224;11.678;2023-06-26T02:20:18;10.85;;;8.48;;
43628;SDS011;56545;48.224;11.678;2023-06-26T02:22:44;12.32;;;8.07;;
43628;SDS011;56545;48.224;11.678;2023-06-26T02:25:10;10.98;;;8.07;;
43628;SDS011;56545;48.224;11.678;2023-06-26T02:27:37;11.23;;;7.93;;
43628;SDS011;56545;48.224;11.678;2023-06-26T02:30:03;11.63;;;8.50;;
43628;SDS011;56545;48.224;11.678;2023-06-26T02:32:30;10.40;;;7.97;;
43628;SDS011;56545;48.224;11.678;2023-06-26T02:34:56;12.32;;;8.18;;
43628;SDS011;56545;48.224;11.678;2023-06-26T02:37:21;11.95;;;8.30;;
43628;SDS011;56545;48.224;11.678;2023-06-26T02:39:47;11.35;;;8.23;;
43628;SDS011;56545;48.224;11.678;2023-06-26T02:42:13;11.65;;;8.02;;
43628;SDS011;56545;48.224;11.678;2023-06-26T02:44:39;11.65;;;8.30;;
43628;SDS011;56545;48.224;11.678;2023-06-26T02:47:05;10.95;;;8.32;;
43628;SDS011;56545;48.224;11.678;2023-06-26T02:49:31;11.18;;;7.90;;
43628;SDS011;56545;48.224;11.678;2023-06-26T02:51:57;10.93;;;8.55;;
43628;SDS011;56545;48.224;11.678;2023-06-26T02:54:23;10.25;;;7.93;;
43628;SDS011;56545;48.224;11.678;2023-06-26T02:56:49;11.40;;;8.35;;
43628;SDS011;56545;48.224;11.678;2023-06-26T02:59:15;12.77;;;7.90;;
43628;SDS011;56545;48.224;11.678;2023-06-26T03:01:41;12.10;;;8.23;;
43628;SDS011;56545;48.224;11.678;2023-06-26T03:04:07;12.68;;;8.27;;
43628;SDS011;56545;48.224;11.678;2023-06-26T03:06:33;10.80;;;7.65;;
43628;SDS011;56545;48.224;11.678;2023-06-26T03:08:59;11.93;;;8.27;;
43628;SDS011;56545;48.224;11.678;2023-06-26T03:11:25;10.68;;;8.18;;
43628;SDS011;56545;48.224;11.678;2023-06-26T03:13:51;10.70;;;8.55;;
43628;SDS011;56545;48.224;11.678;2023-06-26T03:16:16;11.15;;;8.30;;
43628;SDS011;56545;48.224;11.678;2023-06-26T03:18:42;10.32;;;8.07;;
43628;SDS011;56545;48.224;11.678;2023-06-26T03:21:08;10.45;;;8.40;;
43628;SDS011;56545;48.224;11.678;2023-06-26T03:23:34;11.07;;;8.30;;
43628;SDS011;56545;48.224;11.678;2023-06-26T03:26:00;11.98;;;8.02;;
43628;SDS011;56545;48.224;11.678;2023-06-26T03:28:26;12.85;;;8.10;;
43628;SDS011;56545;48.224;11.678;2023-06-26T03:30:52;10.82;;;8.15;;
43628;SDS011;56545;48.224;11.678;2023-06-26T03:33:18;10.73;;;8.13;;
43628;SDS011;56545;48.224;11.678;2023-06-26T03:35:44;12.40;;;8.60;;
43628;SDS011;56545;48.224;11.678;2023-06-26T03:38:10;11.43;;;8.60;;
43628;SDS011;56545;48.224;11.678;2023-06-26T03:40:36;11.05;;;8.25;;
43628;SDS011;56545;48.224;11.678;2023-06-26T03:43:02;10.40;;;8.48;;
43628;SDS011;56545;48.224;11.678;2023-06-26T03:45:28;11.00;;;8.10;;
43628;SDS011;56545;48.224;11.678;2023-06-26T03:47:54;10.82;;;8.23;;
43628;SDS011;56545;48.224;11.678;2023-06-26T03:50:20;10.35;;;7.45;;
43628;SDS011;56545;48.224;11.678;2023-06-26T03:52:46;11.60;;;7.90;;
43628;SDS011;56545;48.224;11.678;2023-06-26T03:55:12;12.20;;;8.45;;
43628;SDS011;56545;48.224;11.678;2023-06-26T03:57:38;12.43;;;8.63;;
43628;SDS011;56545;48.224;11.678;2023-06-26T04:00:04;13.02;;;8.13;;
43628;SDS011;56545;48.224;11.678;2023-06-26T04:02:33;12.77;;;8.32;;
43628;SDS011;56545;48.224;11.678;2023-06-26T04:04:59;13.13;;;7.90;;
43628;SDS011;56545;48.224;11.678;2023-06-26T04:07:25;10.02;;;7.13;;
43628;SDS011;56545;48.224;11.678;2023-06-26T04:09:51;10.65;;;8.00;;
43628;SDS011;56545;48.224;11.678;2023-06-26T04:12:17;13.35;;;8.25;;
43628;SDS011;56545;48.224;11.678;2023-06-26T04:14:43;12.13;;;8.20;;
43628;SDS011;56545;48.224;11.678;2023-06-26T04:17:09;11.98;;;7.80;;
43628;SDS011;56545;48.224;11.678;2023-06-26T04:19:35;14.55;;;7.57;;
43628;SDS011;56545;48.224;11.678;2023-06-26T04:22:01;10.90;;;8.02;;
43628;SDS011;56545;48.224;11.678;2023-06-26T04:24:27;10.50;;;8.02;;
43628;SDS011;56545;48.224;11.678;2023-06-26T04:26:53;10.45;;;7.40;;
43628;SDS011;56545;48.224;11.678;2023-06-26T04:29:22;10.45;;;7.55;;
43628;SDS011;56545;48.224;11.678;2023-06-26T04:31:50;11.45;;;7.97;;
43628;SDS011;56545;48.224;11.678;2023-06-26T04:34:16;10.32;;;7.90;;
43628;SDS011;56545;48.224;11.678;2023-06-26T04:36:42;11.00;;;7.72;;
43628;SDS011;56545;48.224;11.678;2023-06-26T04:39:12;12.35;;;8.00;;
43628;SDS011;56545;48.224;11.678;2023-06-26T04:41:39;11.00;;;7.80;;
43628;SDS011;56545;48.224;11.678;2023-06-26T04:44:06;11.30;;;7.53;;
43628;SDS011;56545;48.224;11.678;2023-06-26T04:46:32;10.82;;;7.63;;
43628;SDS011;56545;48.224;11.678;2023-06-26T04:48:57;10.70;;;7.78;;
43628;SDS011;56545;48.224;11.678;2023-06-26T04:51:26;11.05;;;7.85;;
43628;SDS011;56545;48.224;11.678;2023-06-26T04:53:53;10.77;;;7.32;;
43628;SDS011;56545;48.224;11.678;2023-06-26T04:56:19;11.52;;;7.80;;
43628;SDS011;56545;48.224;11.678;2023-06-26T04:58:45;10.68;;;7.72;;
43628;SDS011;56545;48.224;11.678;2023-06-26T05:01:11;11.85;;;7.53;;
43628;SDS011;56545;48.224;11.678;2023-06-26T05:03:38;11.88;;;7.80;;
43628;SDS011;56545;48.224;11.678;2023-06-26T05:06:04;11.38;;;7.78;;
43628;SDS011;56545;48.224;11.678;2023-06-26T05:08:30;11.73;;;7.60;;
43628;SDS011;56545;48.224;11.678;2023-06-26T05:10:56;10.27;;;7.45;;
43628;SDS011;56545;48.224;11.678;2023-06-26T05:13:25;10.60;;;7.75;;
43628;SDS011;56545;48.224;11.678;2023-06-26T05:15:52;11.52;;;7.88;;
43628;SDS011;56545;48.224;11.678;2023-06-26T05:18:18;11.25;;;7.88;;
43628;SDS011;56545;48.224;11.678;2023-06-26T05:20:44;12.15;;;8.07;;
43628;SDS011;56545;48.224;11.678;2023-06-26T05:23:11;11.77;;;7.78;;
43628;SDS011;56545;48.224;11.678;2023-06-26T05:25:37;13.75;;;7.90;;
43628;SDS011;56545;48.224;11.678;2023-06-26T05:28:04;10.05;;;7.40;;
43628;SDS011;56545;48.224;11.678;2023-06-26T05:30:31;10.93;;;7.40;;
43628;SDS011;56545;48.224;11.678;2023-06-26T05:33:00;12.18;;;7.80;;
43628;SDS011;56545;48.224;11.678;2023-06-26T05:35:28;10.20;;;7.18;;
43628;SDS011;56545;48.224;11.678;2023-06-26T05:37:55;11.65;;;8.18;;
43628;SDS011;56545;48.224;11.678;2023-06-26T05:40:22;13.23;;;7.43;;
43628;SDS011;56545;48.224;11.678;2023-06-26T05:42:48;12.23;;;8.10;;
43628;SDS011;56545;48.224;11.678;2023-06-26T05:45:15;11.30;;;7.63;;
43628;SDS011;56545;48.224;11.678;2023-06-26T05:47:41;10.07;;;7.45;;
43628;SDS011;56545;48.224;11.678;2023-06-26T05:50:07;12.95;;;7.63;;
43628;SDS011;56545;48.224;11.678;2023-06-26T05:52:34;12.60;;;7.57;;
43628;SDS011;56545;48.224;11.678;2023-06-26T05:55:01;12.63;;;7.80;;
43628;SDS011;56545;48.224;11.678;2023-06-26T05:57:28;14.63;;;7.78;;
43628;SDS011;56545;48.224;11.678;2023-06-26T05:59:54;11.35;;;7.70;;
43628;SDS011;56545;48.224;11.678;2023-06-26T06:02:20;10.52;;;7.15;;
43628;SDS011;56545;48.224;11.678;2023-06-26T06:04:46;12.32;;;7.65;;
43628;SDS011;56545;48.224;11.678;2023-06-26T06:07:12;13.85;;;8.73;;
43628;SDS011;56545;48.224;11.678;2023-06-26T06:09:38;12.48;;;8.23;;
43628;SDS011;56545;48.224;11.678;2023-06-26T06:12:05;10.77;;;7.47;;
43628;SDS011;56545;48.224;11.678;2023-06-26T06:14:34;11.27;;;7.22;;
43628;SDS011;56545;48.224;11.678;2023-06-26T06:17:00;11.25;;;7.10;;
43628;SDS011;56545;48.224;11.678;2023-06-26T06:19:26;12.05;;;7.25;;
43628;SDS011;56545;48.224;11.678;2023-06-26T06:21:52;12.00;;;7.97;;
43628;SDS011;56545;48.224;11.678;2023-06-26T06:24:19;13.82;;;7.63;;
43628;SDS011;56545;48.224;11.678;2023-06-26T06:26:45;13.07;;;7.97;;
43628;SDS011;56545;48.224;11.678;2023-06-26T06:29:11;38.95;;;31.70;;
43628;SDS011;56545;48.224;11.678;2023-06-26T06:31:37;12.45;;;9.15;;
43628;SDS011;56545;48.224;11.678;2023-06-26T06:34:02;11.35;;;7.85;;
43628;SDS011;56545;48.224;11.678;2023-06-26T06:36:28;11.95;;;7.13;;
43628;SDS011;56545;48.224;11.678;2023-06-26T06:38:55;10.07;;;7.25;;
43628;SDS011;56545;48.224;11.678;2023-06-26T06:41:20;11.38;;;6.97;;
43628;SDS011;56545;48.224;11.678;2023-06-26T06:43:46;9.80;;;6.55;;
43628;SDS011;56545;48.224;11.678;2023-06-26T06:46:12;10.63;;;7.28;;
43628;SDS011;56545;48.224;11.678;2023-06-26T06:48:38;11.20;;;7.18;;
43628;SDS011;56545;48.224;11.678;2023-06-26T06:51:04;11.70;;;6.85;;
43628;SDS011;56545;48.224;11.678;2023-06-26T06:53:31;12.40;;;6.70;;
43628;SDS011;56545;48.224;11.678;2023-06-26T06:55:57;24.75;;;20.55;;
43628;SDS011;56545;48.224;11.678;2023-06-26T06:58:23;10.20;;;7.50;;
43628;SDS011;56545;48.224;11.678;2023-06-26T07:00:49;10.63;;;6.35;;
43628;SDS011;56545;48.224;11.678;2023-06-26T07:03:16;10.43;;;6.70;;
43628;SDS011;56545;48.224;11.678;2023-06-26T07:05:43;10.32;;;6.85;;
43628;SDS011;56545;48.224;11.678;2023-06-26T07:08:09;9.95;;;6.82;;
43628;SDS011;56545;48.224;11.678;2023-06-26T07:10:35;9.32;;;5.63;;
43628;SDS011;56545;48.224;11.678;2023-06-26T07:13:01;9.15;;;5.97;;
43628;SDS011;56545;48.224;11.678;2023-06-26T07:15:27;8.73;;;6.10;;
43628;SDS011;56545;48.224;11.678;2023-06-26T07:17:53;9.02;;;5.90;;
43628;SDS011;56545;48.224;11.678;2023-06-26T07:20:19;9.55;;;6.13;;
43628;SDS011;56545;48.224;11.678;2023-06-26T07:22:45;10.20;;;5.90;;
43628;SDS011;56545;48.224;11.678;2023-06-26T07:25:12;9.68;;;5.70;;
43628;SDS011;56545;48.224;11.678;2023-06-26T07:27:38;9.35;;;5.30;;
43628;SDS011;56545;48.224;11.678;2023-06-26T07:30:05;7.95;;;5.53;;
43628;SDS011;56545;48.224;11.678;2023-06-26T07:32:33;8.77;;;5.80;;
43628;SDS011;56545;48.224;11.678;2023-06-26T07:34:59;10.68;;;5.10;;
43628;SDS011;56545;48.224;11.678;2023-06-26T07:37:25;7.43;;;5.30;;
43628;SDS011;56545;48.224;11.678;2023-06-26T07:39:51;8.57;;;5.40;;
43628;SDS011;56545;48.224;11.678;2023-06-26T07:42:17;8.75;;;5.35;;
43628;SDS011;56545;48.224;11.678;2023-06-26T07:44:43;7.82;;;5.35;;
43628;SDS011;56545;48.224;11.678;2023-06-26T07:47:10;8.60;;;5.43;;
43628;SDS011;56545;48.224;11.678;2023-06-26T07:49:36;8.05;;;5.75;;
43628;SDS011;56545;48.224;11.678;2023-06-26T07:52:04;8.55;;;5.63;;
43628;SDS011;56545;48.224;11.678;2023-06-26T07:54:30;9.45;;;5.43;;
43628;SDS011;56545;48.224;11.678;2023-06-26T07:56:57;8.40;;;5.95;;
43628;SDS011;56545;48.224;11.678;2023-06-26T07:59:26;7.40;;;5.13;;
43628;SDS011;56545;48.224;11.678;2023-06-26T08:01:54;7.88;;;5.35;;
43628;SDS011;56545;48.224;11.678;2023-06-26T08:04:23;8.07;;;5.47;;
43628;SDS011;56545;48.224;11.678;2023-06-26T08:06:51;8.32;;;5.93;;
43628;SDS011;56545;48.224;11.678;2023-06-26T08:09:19;8.05;;;5.45;;
43628;SDS011;56545;48.224;11.678;2023-06-26T08:11:47;7.65;;;5.72;;
43628;SDS011;56545;48.224;11.678;2023-06-26T08:14:13;7.97;;;5.40;;
43628;SDS011;56545;48.224;11.678;2023-06-26T08:16:39;7.82;;;5.60;;
43628;SDS011;56545;48.224;11.678;2023-06-26T08:19:06;8.45;;;5.68;;
43628;SDS011;56545;48.224;11.678;2023-06-26T08:21:32;7.80;;;5.57;;
43628;SDS011;56545;48.224;11.678;2023-06-26T08:23:58;8.25;;;5.22;;
43628;SDS011;56545;48.224;11.678;2023-06-26T08:26:24;9.95;;;5.60;;
43628;SDS011;56545;48.224;11.678;2023-06-26T08:28:50;7.47;;;5.50;;
43628;SDS011;56545;48.224;11.678;2023-06-26T08:31:16;9.70;;;5.43;;
43628;SDS011;56545;48.224;11.678;2023-06-26T08:33:43;8.93;;;5.63;;
43628;SDS011;56545;48.224;11.678;2023-06-26T08:36:09;9.25;;;6.68;;
43628;SDS011;56545;48.224;11.678;2023-06-26T08:38:34;7.63;;;5.35;;
43628;SDS011;56545;48.224;11.678;2023-06-26T08:41:00;8.63;;;6.47;;
43628;SDS011;56545;48.224;11.678;2023-06-26T08:43:27;7.70;;;5.38;;
43628;SDS011;56545;48.224;11.678;2023-06-26T08:45:53;8.23;;;5.13;;
43628;SDS011;56545;48.224;11.678;2023-06-26T08:48:20;6.60;;;4.95;;
43628;SDS011;56545;48.224;11.678;2023-06-26T08:50:49;8.55;;;5.30;;
43628;SDS011;56545;48.224;11.678;2023-06-26T08:55:48;8.60;;;5.70;;
43628;SDS011;56545;48.224;11.678;2023-06-26T08:58:16;7.80;;;5.75;;
43628;SDS011;56545;48.224;11.678;2023-06-26T09:00:43;9.07;;;5.50;;
43628;SDS011;56545;48.224;11.678;2023-06-26T09:03:09;8.15;;;5.70;;
43628;SDS011;56545;48.224;11.678;2023-06-26T09:05:35;8.10;;;5.10;;
43628;SDS011;56545;48.224;11.678;2023-06-26T09:08:01;10.02;;;5.28;;
43628;SDS011;56545;48.224;11.678;2023-06-26T09:10:28;7.90;;;5.35;;
43628;SDS011;56545;48.224;11.678;2023-06-26T09:12:57;7.65;;;5.07;;
43628;SDS011;56545;48.224;11.678;2023-06-26T09:15:23;7.57;;;5.10;;
43628;SDS011;56545;48.224;11.678;2023-06-26T09:17:49;7.28;;;4.90;;
43628;SDS011;56545;48.224;11.678;2023-06-26T09:20:20;7.85;;;5.30;;
43628;SDS011;56545;48.224;11.678;2023-06-26T09:22:47;8.90;;;4.93;;
43628;SDS011;56545;48.224;11.678;2023-06-26T09:25:13;7.38;;;4.53;;
43628;SDS011;56545;48.224;11.678;2023-06-26T09:27:39;7.05;;;4.20;;
43628;SDS011;56545;48.224;11.678;2023-06-26T09:30:07;7.85;;;4.80;;
43628;SDS011;56545;48.224;11.678;2023-06-26T09:32:34;6.35;;;4.70;;
43628;SDS011;56545;48.224;11.678;2023-06-26T09:35:01;7.55;;;5.22;;
43628;SDS011;56545;48.224;11.678;2023-06-26T09:37:28;7.93;;;4.60;;
43628;SDS011;56545;48.224;11.678;2023-06-26T09:39:54;8.18;;;4.38;;
43628;SDS011;56545;48.224;11.678;2023-06-26T09:42:20;8.07;;;4.50;;
43628;SDS011;56545;48.224;11.678;2023-06-26T09:44:47;9.07;;;4.70;;
43628;SDS011;56545;48.224;11.678;2023-06-26T09:47:16;6.47;;;4.68;;
43628;SDS011;56545;48.224;11.678;2023-06-26T09:49:45;7.53;;;4.60;;
43628;SDS011;56545;48.224;11.678;2023-06-26T09:52:15;5.85;;;4.05;;
43628;SDS011;56545;48.224;11.678;2023-06-26T09:54:42;9.07;;;4.60;;
43628;SDS011;56545;48.224;11.678;2023-06-26T09:57:13;7.53;;;4.70;;
43628;SDS011;56545;48.224;11.678;2023-06-26T09:59:43;6.63;;;4.38;;
43628;SDS011;56545;48.224;11.678;2023-06-26T10:02:12;6.55;;;3.97;;
43628;SDS011;56545;48.224;11.678;2023-06-26T10:04:38;7.00;;;4.22;;
43628;SDS011;56545;48.224;11.678;2023-06-26T10:07:05;5.65;;;3.72;;
43628;SDS011;56545;48.224;11.678;2023-06-26T10:09:33;6.18;;;3.88;;
43628;SDS011;56545;48.224;11.678;2023-06-26T10:14:54;7.68;;;4.15;;
43628;SDS011;56545;48.224;11.678;2023-06-26T10:17:22;7.68;;;4.22;;
43628;SDS011;56545;48.224;11.678;2023-06-26T10:19:52;7.95;;;4.28;;
43628;SDS011;56545;48.224;11.678;2023-06-26T10:22:21;6.10;;;3.83;;
43628;SDS011;56545;48.224;11.678;2023-06-26T10:24:52;6.47;;;3.97;;
43628;SDS011;56545;48.224;11.678;2023-06-26T10:27:20;6.88;;;4.20;;
43628;SDS011;56545;48.224;11.678;2023-06-26T10:29:49;8.60;;;4.18;;
43628;SDS011;56545;48.224;11.678;2023-06-26T10:32:21;6.78;;;4.13;;
43628;SDS011;56545;48.224;11.678;2023-06-26T10:34:49;7.18;;;3.90;;
43628;SDS011;56545;48.224;11.678;2023-06-26T10:37:16;6.30;;;3.80;;
43628;SDS011;56545;48.224;11.678;2023-06-26T10:39:46;6.00;;;4.05;;
43628;SDS011;56545;48.224;11.678;2023-06-26T10:42:14;6.97;;;3.83;;
43628;SDS011;56545;48.224;11.678;2023-06-26T10:44:42;7.50;;;3.78;;
43628;SDS011;56545;48.224;11.678;2023-06-26T10:47:09;5.80;;;3.95;;
43628;SDS011;56545;48.224;11.678;2023-06-26T10:49:36;5.35;;;3.70;;
43628;SDS011;56545;48.224;11.678;2023-06-26T10:52:07;5.75;;;3.88;;
43628;SDS011;56545;48.224;11.678;2023-06-26T10:54:33;6.28;;;3.88;;
43628;SDS011;56545;48.224;11.678;2023-06-26T10:57:00;6.65;;;4.03;;
43628;SDS011;56545;48.224;11.678;2023-06-26T10:59:27;6.45;;;3.22;;
43628;SDS011;56545;48.224;11.678;2023-06-26T11:01:55;5.45;;;3.20;;
43628;SDS011;56545;48.224;11.678;2023-06-26T11:05:03;5.88;;;3.65;;
43628;SDS011;56545;48.224;11.678;2023-06-26T11:07:25;6.47;;;3.45;;
43628;SDS011;56545;48.224;11.678;2023-06-26T11:15:16;6.35;;;3.78;;
43628;SDS011;56545;48.224;11.678;2023-06-26T11:17:44;6.60;;;4.43;;
43628;SDS011;56545;48.224;11.678;2023-06-26T11:20:11;6.10;;;4.20;;
43628;SDS011;56545;48.224;11.678;2023-06-26T11:22:38;6.80;;;4.18;;
43628;SDS011;56545;48.224;11.678;2023-06-26T11:25:06;6.53;;;3.85;;
43628;SDS011;56545;48.224;11.678;2023-06-26T11:27:40;6.10;;;3.83;;
43628;SDS011;56545;48.224;11.678;2023-06-26T11:30:06;5.32;;;3.65;;
43628;SDS011;56545;48.224;11.678;2023-06-26T11:32:34;6.28;;;4.03;;
43628;SDS011;56545;48.224;11.678;2023-06-26T11:35:01;6.78;;;3.80;;
43628;SDS011;56545;48.224;11.678;2023-06-26T11:37:29;6.38;;;4.00;;
43628;SDS011;56545;48.224;11.678;2023-06-26T11:39:58;5.90;;;4.13;;
43628;SDS011;56545;48.224;11.678;2023-06-26T11:42:24;5.78;;;4.32;;
43628;SDS011;56545;48.224;11.678;2023-06-26T11:44:51;5.93;;;3.83;;
43628;SDS011;56545;48.224;11.678;2023-06-26T11:47:18;6.97;;;4.18;;
43628;SDS011;56545;48.224;11.678;2023-06-26T11:49:46;6.50;;;4.18;;
43628;SDS011;56545;48.224;11.678;2023-06-26T11:52:13;7.38;;;4.03;;
43628;SDS011;56545;48.224;11.678;2023-06-26T11:54:40;7.03;;;4.60;;
43628;SDS011;56545;48.224;11.678;2023-06-26T11:57:07;6.15;;;4.43;;
43628;SDS011;56545;48.224;11.678;2023-06-26T11:59:39;6.40;;;4.22;;
43628;SDS011;56545;48.224;11.678;2023-06-26T12:02:09;6.28;;;4.45;;
43628;SDS011;56545;48.224;11.678;2023-06-26T12:04:38;5.53;;;3.80;;
43628;SDS011;56545;48.224;11.678;2023-06-26T12:07:07;6.05;;;4.30;;
43628;SDS011;56545;48.224;11.678;2023-06-26T12:09:38;6.20;;;4.13;;
43628;SDS011;56545;48.224;11.678;2023-06-26T12:12:05;7.53;;;4.40;;
43628;SDS011;56545;48.224;11.678;2023-06-26T12:14:32;6.60;;;4.72;;
43628;SDS011;56545;48.224;11.678;2023-06-26T12:17:05;8.02;;;4.60;;
43628;SDS011;56545;48.224;11.678;2023-06-26T12:19:38;8.88;;;6.30;;
43628;SDS011;56545;48.224;11.678;2023-06-26T12:22:08;7.13;;;4.20;;
43628;SDS011;56545;48.224;11.678;2023-06-26T12:24:37;7.53;;;4.57;;
43628;SDS011;56545;48.224;11.678;2023-06-26T12:27:08;7.00;;;4.38;;
43628;SDS011;56545;48.224;11.678;2023-06-26T12:29:35;6.28;;;4.22;;
43628;SDS011;56545;48.224;11.678;2023-06-26T12:32:02;7.55;;;4.63;;
43628;SDS011;56545;48.224;11.678;2023-06-26T12:34:30;7.32;;;4.53;;
43628;SDS011;56545;48.224;11.678;2023-06-26T12:37:10;6.97;;;4.53;;
43628;SDS011;56545;48.224;11.678;2023-06-26T12:40:00;7.43;;;4.80;;
43628;SDS011;56545;48.224;11.678;2023-06-26T12:42:25;7.03;;;4.43;;
43628;SDS011;56545;48.224;11.678;2023-06-26T12:44:52;6.18;;;4.38;;
43628;SDS011;56545;48.224;11.678;2023-06-26T12:47:25;7.15;;;4.97;;
43628;SDS011;56545;48.224;11.678;2023-06-26T12:49:52;6.75;;;4.78;;
43628;SDS011;56545;48.224;11.678;2023-06-26T12:52:18;7.03;;;4.38;;
43628;SDS011;56545;48.224;11.678;2023-06-26T12:54:45;9.75;;;4.60;;
43628;SDS011;56545;48.224;11.678;2023-06-26T12:57:12;6.47;;;4.80;;
43628;SDS011;56545;48.224;11.678;2023-06-26T12:59:41;7.28;;;4.78;;
43628;SDS011;56545;48.224;11.678;2023-06-26T13:02:08;6.80;;;4.82;;
43628;SDS011;56545;48.224;11.678;2023-06-26T13:04:36;7.57;;;4.38;;
43628;SDS011;56545;48.224;11.678;2023-06-26T13:07:07;6.93;;;4.50;;
43628;SDS011;56545;48.224;11.678;2023-06-26T13:09:33;7.68;;;4.38;;
43628;SDS011;56545;48.224;11.678;2023-06-26T13:12:00;7.72;;;4.40;;
43628;SDS011;56545;48.224;11.678;2023-06-26T13:14:30;6.95;;;4.60;;
43628;SDS011;56545;48.224;11.678;2023-06-26T13:16:56;6.38;;;4.60;;
43628;SDS011;56545;48.224;11.678;2023-06-26T13:19:22;6.53;;;4.68;;
43628;SDS011;56545;48.224;11.678;2023-06-26T13:21:48;7.13;;;4.63;;
43628;SDS011;56545;48.224;11.678;2023-06-26T13:24:14;6.78;;;4.47;;
43628;SDS011;56545;48.224;11.678;2023-06-26T13:26:40;7.13;;;4.80;;
43628;SDS011;56545;48.224;11.678;2023-06-26T13:29:06;8.55;;;4.68;;
43628;SDS011;56545;48.224;11.678;2023-06-26T13:31:32;7.70;;;5.05;;
43628;SDS011;56545;48.224;11.678;2023-06-26T13:33:59;8.27;;;4.80;;
43628;SDS011;56545;48.224;11.678;2023-06-26T13:36:25;8.32;;;5.00;;
43628;SDS011;56545;48.224;11.678;2023-06-26T13:38:51;7.63;;;4.90;;
43628;SDS011;56545;48.224;11.678;2023-06-26T13:41:21;9.05;;;5.35;;
43628;SDS011;56545;48.224;11.678;2023-06-26T13:43:48;9.13;;;5.53;;
43628;SDS011;56545;48.224;11.678;2023-06-26T13:46:14;6.88;;;4.93;;
43628;SDS011;56545;48.224;11.678;2023-06-26T13:48:41;8.75;;;5.10;;
43628;SDS011;56545;48.224;11.678;2023-06-26T13:51:07;6.88;;;4.97;;
43628;SDS011;56545;48.224;11.678;2023-06-26T13:53:33;7.03;;;4.95;;
43628;SDS011;56545;48.224;11.678;2023-06-26T13:55:58;12.00;;;5.28;;
43628;SDS011;56545;48.224;11.678;2023-06-26T13:58:24;7.05;;;4.82;;
43628;SDS011;56545;48.224;11.678;2023-06-26T14:00:52;7.05;;;4.82;;
43628;SDS011;56545;48.224;11.678;2023-06-26T14:03:18;6.38;;;4.82;;
43628;SDS011;56545;48.224;11.678;2023-06-26T14:05:44;7.35;;;4.82;;
43628;SDS011;56545;48.224;11.678;2023-06-26T14:08:10;7.55;;;4.90;;
43628;SDS011;56545;48.224;11.678;2023-06-26T14:10:36;6.57;;;4.65;;
43628;SDS011;56545;48.224;11.678;2023-06-26T14:13:03;7.72;;;4.80;;
43628;SDS011;56545;48.224;11.678;2023-06-26T14:15:29;7.53;;;4.78;;
43628;SDS011;56545;48.224;11.678;2023-06-26T14:17:55;6.95;;;4.50;;
43628;SDS011;56545;48.224;11.678;2023-06-26T14:20:21;6.53;;;4.35;;
43628;SDS011;56545;48.224;11.678;2023-06-26T14:22:48;6.93;;;4.15;;
43628;SDS011;56545;48.224;11.678;2023-06-26T14:25:14;6.90;;;5.00;;
43628;SDS011;56545;48.224;11.678;2023-06-26T14:27:41;7.05;;;4.43;;
43628;SDS011;56545;48.224;11.678;2023-06-26T14:30:07;8.05;;;4.75;;
43628;SDS011;56545;48.224;11.678;2023-06-26T14:32:34;7.60;;;4.90;;
43628;SDS011;56545;48.224;11.678;2023-06-26T14:35:00;8.23;;;4.95;;
43628;SDS011;56545;48.224;11.678;2023-06-26T14:37:28;7.70;;;4.65;;
43628;SDS011;56545;48.224;11.678;2023-06-26T14:39:55;6.95;;;4.57;;
43628;SDS011;56545;48.224;11.678;2023-06-26T14:42:21;7.93;;;4.70;;